Time,TemperatureF,DewpointF,PressureIn,WindDirection,WindDirectionDegrees,WindSpeedMPH,WindSpeedGustMPH,Humidity,HourlyPrecipIn,Conditions,Clouds,dailyrainin,SoftwareType,DateUTC
2013-06-15 00:01:00,57.4,56.0,30.00,WSW,248,0.6,2.2,95,0.00,CLR,,0.00,WeatherDisplay:10.37,2013-06-15 04:01:00,
2013-06-15 00:02:00,57.4,56.0,30.00,WSW,248,1.9,2.3,95,0.00,CLR,,0.00,WeatherDisplay:10.37,2013-06-15 04:02:00,
2013-06-15 00:07:00,57.2,55.8,30.01,West,270,1.4,2.3,95,0.00,CLR,,0.00,WeatherDisplay:10.37,2013-06-15 04:07:00,
2013-06-15 00:12:00,57.2,55.8,30.01,South,180,0.0,0.0,95,0.00,CLR,,0.00,WeatherDisplay:10.37,2013-06-15 04:12:00,
2013-06-15 00:17:00,56.8,55.4,30.01,SW,225,1.3,1.3,95,0.00,CLR,,0.00,WeatherDisplay:10.37,2013-06-15 04:17:00,
2013-06-15 00:22:00,56.7,55.3,30.01,SW,225,0.8,1.1,95,0.00,CLR,,0.00,WeatherDisplay:10.37,2013-06-15 04:22:00,
2013-06-15 00:27:00,56.5,55.1,30.01,WSW,248,0.0,0.0,95,0.00,CLR,,0.00,WeatherDisplay:10.37,2013-06-15 04:27:00,
2013-06-15 00:32:00,56.3,54.9,30.01,WSW,248,0.0,0.0,95,0.00,CLR,,0.00,WeatherDisplay:10.37,2013-06-15 04:32:00,
2013-06-15 00:37:00,56.3,54.9,30.01,WSW,248,0.0,0.0,95,0.00,CLR,,0.00,WeatherDisplay:10.37,2013-06-15 04:37:00,
2013-06-15 00:42:00,56.1,54.7,30.01,WSW,248,0.0,0.0,95,0.00,CLR,,0.00,WeatherDisplay:10.37,2013-06-15 04:42:00,
2013-06-15 00:47:00,56.1,54.7,30.01,WSW,248,0.8,1.1,95,0.00,CLR,,0.00,WeatherDisplay:10.37,2013-06-15 04:47:00,
2013-06-15 00:52:00,55.9,54.5,30.01,WSW,248,0.0,0.0,95,0.00,CLR,,0.00,WeatherDisplay:10.37,2013-06-15 04:52:00,
2013-06-15 00:57:00,55.8,54.4,30.02,East,90,0.0,0.0,95,0.00,CLR,,0.00,WeatherDisplay:10.37,2013-06-15 04:57:00,
2013-06-15 01:02:00,55.8,54.4,30.02,South,180,0.0,0.0,95,0.00,CLR,,0.00,WeatherDisplay:10.37,2013-06-15 05:02:00,
2013-06-15 01:07:00,55.4,54.0,30.01,SSE,158,0.0,0.0,95,0.00,CLR,,0.00,WeatherDisplay:10.37,2013-06-15 05:07:00,
2013-06-15 01:12:00,55.2,53.8,30.01,SSE,158,0.0,0.0,95,0.00,CLR,,0.00,WeatherDisplay:10.37,2013-06-15 05:12:00,
2013-06-15 01:17:00,54.9,53.5,30.01,ESE,112,0.0,0.0,95,0.00,CLR,,0.00,WeatherDisplay:10.37,2013-06-15 05:17:00,
2013-06-15 01:22:00,54.7,53.3,30.01,ESE,112,0.0,0.0,95,0.00,CLR,,0.00,WeatherDisplay:10.37,2013-06-15 05:22:00,
2013-06-15 01:27:00,54.3,52.9,30.01,ESE,112,0.0,0.0,95,0.00,CLR,,0.00,WeatherDisplay:10.37,2013-06-15 05:27:00,
2013-06-15 01:32:00,54.1,52.7,30.01,ESE,112,0.0,0.0,95,0.00,CLR,,0.00,WeatherDisplay:10.37,2013-06-15 05:32:00,
2013-06-15 01:37:00,54.0,52.6,30.01,South,180,0.0,0.0,95,0.00,CLR,,0.00,WeatherDisplay:10.37,2013-06-15 05:37:00,
2013-06-15 01:42:00,53.8,52.4,30.00,West,270,0.2,1.1,95,0.00,CLR,,0.00,WeatherDisplay:10.37,2013-06-15 05:42:00,
2013-06-15 01:47:00,53.8,52.4,30.00,WSW,248,0.0,0.0,95,0.00,CLR,,0.00,WeatherDisplay:10.37,2013-06-15 05:47:00,
2013-06-15 01:52:00,53.6,52.2,30.00,WSW,248,0.0,0.0,95,0.00,CLR,,0.00,WeatherDisplay:10.37,2013-06-15 05:52:00,
2013-06-15 01:57:00,53.4,52.0,30.01,WSW,248,0.0,0.0,95,0.00,CLR,,0.00,WeatherDisplay:10.37,2013-06-15 05:57:00,
2013-06-15 02:02:00,53.4,52.0,30.01,SE,135,0.0,0.0,95,0.00,FEW,,0.00,WeatherDisplay:10.37,2013-06-15 06:02:00,
2013-06-15 02:07:00,53.2,51.8,30.01,SSE,158,0.0,0.0,95,0.00,FEW,,0.00,WeatherDisplay:10.37,2013-06-15 06:07:00,
2013-06-15 02:12:00,53.1,51.7,30.01,SSE,158,0.0,0.0,95,0.00,FEW,,0.00,WeatherDisplay:10.37,2013-06-15 06:12:00,
2013-06-15 02:17:00,52.9,51.5,30.01,SSE,158,0.0,0.0,95,0.00,FEW,,0.00,WeatherDisplay:10.37,2013-06-15 06:17:00,
2013-06-15 02:22:00,52.7,51.3,30.01,SSE,158,0.0,0.0,95,0.00,FEW,,0.00,WeatherDisplay:10.37,2013-06-15 06:22:00,
2013-06-15 02:27:00,52.5,51.1,30.01,SSE,158,0.0,0.0,95,0.00,FEW,,0.00,WeatherDisplay:10.37,2013-06-15 06:27:00,
2013-06-15 02:32:00,52.5,51.1,30.01,SE,135,0.0,0.0,95,0.00,FEW,,0.00,WeatherDisplay:10.37,2013-06-15 06:32:00,
2013-06-15 02:37:00,52.5,51.1,30.01,WSW,248,0.0,0.0,95,0.00,FEW,,0.00,WeatherDisplay:10.37,2013-06-15 06:37:00,
2013-06-15 02:42:00,52.7,51.3,30.01,SSW,202,0.0,1.1,95,0.00,FEW,,0.00,WeatherDisplay:10.37,2013-06-15 06:42:00,
2013-06-15 02:47:00,53.1,51.7,30.01,WSW,248,0.0,0.0,95,0.00,FEW,,0.00,WeatherDisplay:10.37,2013-06-15 06:47:00,
2013-06-15 02:52:00,53.1,51.7,30.01,SSE,158,0.0,0.0,95,0.00,FEW,,0.00,WeatherDisplay:10.37,2013-06-15 06:52:00,
2013-06-15 02:57:00,53.1,51.7,30.00,SSE,158,0.0,0.0,95,0.00,FEW,,0.00,WeatherDisplay:10.37,2013-06-15 06:57:00,
2013-06-15 03:02:00,52.9,51.5,30.00,SSE,158,0.0,0.0,95,0.00,SCT,,0.00,WeatherDisplay:10.37,2013-06-15 07:02:00,
2013-06-15 03:07:00,52.7,51.3,30.00,ESE,112,0.0,0.0,95,0.00,SCT,,0.00,WeatherDisplay:10.37,2013-06-15 07:07:00,
2013-06-15 03:12:00,52.3,50.9,30.00,ESE,112,0.0,0.0,95,0.00,SCT,,0.00,WeatherDisplay:10.37,2013-06-15 07:12:00,
2013-06-15 03:17:00,52.3,50.9,30.00,ESE,112,0.0,0.0,95,0.00,SCT,,0.00,WeatherDisplay:10.37,2013-06-15 07:17:00,
2013-06-15 03:22:00,52.2,50.8,30.00,ESE,112,0.0,0.0,95,0.00,SCT,,0.00,WeatherDisplay:10.37,2013-06-15 07:22:00,
2013-06-15 03:27:00,51.8,50.4,30.00,ESE,112,0.0,0.0,95,0.00,SCT,,0.00,WeatherDisplay:10.37,2013-06-15 07:27:00,
2013-06-15 03:32:00,51.6,50.2,30.00,ESE,112,0.0,0.0,95,0.00,SCT,,0.00,WeatherDisplay:10.37,2013-06-15 07:32:00,
2013-06-15 03:37:00,51.4,50.0,30.00,ESE,112,0.0,0.0,95,0.00,SCT,,0.00,WeatherDisplay:10.37,2013-06-15 07:37:00,
2013-06-15 03:42:00,51.1,49.7,30.00,ESE,112,0.0,0.0,95,0.00,SCT,,0.00,WeatherDisplay:10.37,2013-06-15 07:42:00,
2013-06-15 03:47:00,50.9,49.5,30.00,ESE,112,0.0,0.0,95,0.00,SCT,,0.00,WeatherDisplay:10.37,2013-06-15 07:47:00,
2013-06-15 03:52:00,50.7,49.3,30.00,ESE,112,0.0,0.0,95,0.00,SCT,,0.00,WeatherDisplay:10.37,2013-06-15 07:52:00,
2013-06-15 03:57:00,50.4,49.0,30.00,ESE,112,0.0,0.0,95,0.00,SCT,,0.00,WeatherDisplay:10.37,2013-06-15 07:57:00,
2013-06-15 04:02:00,50.4,49.0,30.00,ESE,112,0.0,0.0,95,0.00,SCT,,0.00,WeatherDisplay:10.37,2013-06-15 08:02:00,
2013-06-15 04:07:00,50.0,48.6,30.00,ESE,112,0.0,0.0,95,0.00,SCT,,0.00,WeatherDisplay:10.37,2013-06-15 08:07:00,
2013-06-15 04:12:00,50.5,49.1,30.00,ESE,112,0.0,0.0,95,0.00,SCT,,0.00,WeatherDisplay:10.37,2013-06-15 08:12:00,
2013-06-15 04:17:00,49.8,48.4,30.00,ESE,112,0.0,0.0,95,0.00,SCT,,0.00,WeatherDisplay:10.37,2013-06-15 08:17:00,
2013-06-15 04:22:00,49.8,48.4,30.00,ESE,112,0.0,0.0,95,0.00,FEW,,0.00,WeatherDisplay:10.37,2013-06-15 08:22:00,
2013-06-15 04:27:00,49.8,48.4,30.00,ESE,112,0.0,0.0,95,0.00,FEW,,0.00,WeatherDisplay:10.37,2013-06-15 08:27:00,
2013-06-15 04:32:00,49.6,48.2,30.00,SSE,158,0.0,0.0,95,0.00,FEW,,0.00,WeatherDisplay:10.37,2013-06-15 08:32:00,
2013-06-15 04:37:00,49.6,48.2,30.00,SSE,158,0.0,0.0,95,0.00,FEW,,0.00,WeatherDisplay:10.37,2013-06-15 08:37:00,
2013-06-15 04:42:00,49.3,47.9,30.00,South,180,0.0,0.0,95,0.00,FEW,,0.00,WeatherDisplay:10.37,2013-06-15 08:42:00,
2013-06-15 04:47:00,49.1,47.7,30.00,South,180,0.0,0.0,95,0.00,FEW,,0.00,WeatherDisplay:10.37,2013-06-15 08:47:00,
2013-06-15 04:52:00,48.7,47.3,30.00,SSE,158,0.0,0.0,95,0.00,FEW,,0.00,WeatherDisplay:10.37,2013-06-15 08:52:00,
2013-06-15 04:57:00,48.9,47.5,30.00,SSE,158,0.0,0.0,95,0.00,FEW,,0.00,WeatherDisplay:10.37,2013-06-15 08:57:00,
2013-06-15 05:02:00,48.7,47.3,30.00,SSE,158,0.0,0.0,95,0.00,FEW,,0.00,WeatherDisplay:10.37,2013-06-15 09:02:00,
2013-06-15 05:07:00,48.4,47.0,30.01,South,180,0.0,0.0,95,0.00,FEW,,0.00,WeatherDisplay:10.37,2013-06-15 09:07:00,
2013-06-15 05:12:00,48.4,47.0,30.01,South,180,0.0,0.0,95,0.00,FEW,,0.00,WeatherDisplay:10.37,2013-06-15 09:12:00,
2013-06-15 05:17:00,48.2,46.8,30.01,South,180,0.0,0.0,95,0.00,FEW,,0.00,WeatherDisplay:10.37,2013-06-15 09:17:00,
2013-06-15 05:22:00,48.2,46.8,30.01,South,180,0.0,0.0,95,0.00,FEW,,0.00,WeatherDisplay:10.37,2013-06-15 09:22:00,
2013-06-15 05:27:00,48.0,46.6,30.01,South,180,0.0,0.0,95,0.00,FEW,,0.00,WeatherDisplay:10.37,2013-06-15 09:27:00,
2013-06-15 05:32:00,48.4,47.0,30.01,South,180,0.0,0.0,95,0.00,FEW,,0.00,WeatherDisplay:10.37,2013-06-15 09:32:00,
2013-06-15 05:37:00,48.2,46.8,30.01,South,180,0.0,0.0,95,0.00,FEW,,0.00,WeatherDisplay:10.37,2013-06-15 09:37:00,
2013-06-15 05:42:00,48.2,46.8,30.02,South,180,0.0,0.0,95,0.00,FEW,,0.00,WeatherDisplay:10.37,2013-06-15 09:42:00,
2013-06-15 05:47:00,48.4,47.0,30.02,South,180,0.0,0.0,95,0.00,FEW,,0.00,WeatherDisplay:10.37,2013-06-15 09:47:00,
2013-06-15 05:52:00,48.2,46.8,30.02,South,180,0.0,0.0,95,0.00,FEW,,0.00,WeatherDisplay:10.37,2013-06-15 09:52:00,
2013-06-15 05:57:00,48.2,46.8,30.03,South,180,0.0,0.0,95,0.00,FEW,,0.00,WeatherDisplay:10.37,2013-06-15 09:57:00,
2013-06-15 06:02:00,48.2,46.8,30.03,SE,135,0.0,0.0,95,0.00,FEW,,0.00,WeatherDisplay:10.37,2013-06-15 10:02:00,
2013-06-15 06:07:00,49.3,47.9,30.04,West,270,0.1,1.1,95,0.00,FEW,,0.00,WeatherDisplay:10.37,2013-06-15 10:07:00,
2013-06-15 06:12:00,50.9,49.5,30.04,SW,225,1.9,2.3,95,0.00,FEW,,0.00,WeatherDisplay:10.37,2013-06-15 10:12:00,
2013-06-15 06:17:00,52.0,50.6,30.04,SSW,202,1.2,2.3,95,0.00,FEW,,0.00,WeatherDisplay:10.37,2013-06-15 10:17:00,
2013-06-15 06:22:00,52.9,51.5,30.05,WSW,248,1.7,1.7,95,0.00,FEW,,0.00,WeatherDisplay:10.37,2013-06-15 10:22:00,
2013-06-15 06:27:00,53.6,52.2,30.05,WSW,248,2.3,2.3,95,0.00,FEW,,0.00,WeatherDisplay:10.37,2013-06-15 10:27:00,
2013-06-15 06:32:00,54.1,52.7,30.05,SW,225,1.4,2.3,95,0.00,FEW,,0.00,WeatherDisplay:10.37,2013-06-15 10:32:00,
2013-06-15 06:37:00,54.3,52.9,30.05,SW,225,1.2,2.3,95,0.00,FEW,,0.00,WeatherDisplay:10.37,2013-06-15 10:37:00,
2013-06-15 06:42:00,54.9,53.5,30.05,SW,225,1.6,2.3,95,0.00,FEW,,0.00,WeatherDisplay:10.37,2013-06-15 10:42:00,
2013-06-15 06:47:00,55.8,54.4,30.05,SSE,158,0.0,0.0,95,0.00,FEW,,0.00,WeatherDisplay:10.37,2013-06-15 10:47:00,
2013-06-15 06:52:00,56.5,55.1,30.05,SSW,202,1.0,2.3,95,0.00,FEW,,0.00,WeatherDisplay:10.37,2013-06-15 10:52:00,
2013-06-15 06:57:00,57.2,55.8,30.05,SSW,202,0.0,0.0,95,0.00,FEW,,0.00,WeatherDisplay:10.37,2013-06-15 10:57:00,
2013-06-15 07:02:00,58.6,57.2,30.05,SE,135,0.0,0.0,95,0.00,FEW,,0.00,WeatherDisplay:10.37,2013-06-15 11:02:00,
2013-06-15 07:07:00,59.0,57.6,30.04,SW,225,0.0,0.0,95,0.00,FEW,,0.00,WeatherDisplay:10.37,2013-06-15 11:07:00,
2013-06-15 07:12:00,59.0,57.6,30.04,WSW,248,0.4,1.1,95,0.00,FEW,,0.00,WeatherDisplay:10.37,2013-06-15 11:12:00,
2013-06-15 07:17:00,59.0,57.6,30.05,WSW,248,1.5,1.7,95,0.00,FEW,,0.00,WeatherDisplay:10.37,2013-06-15 11:17:00,
2013-06-15 07:22:00,59.2,57.8,30.05,West,270,2.7,3.5,95,0.00,SCT,,0.00,WeatherDisplay:10.37,2013-06-15 11:22:00,
2013-06-15 07:27:00,59.5,58.1,30.05,WSW,248,1.9,2.3,95,0.00,SCT,,0.00,WeatherDisplay:10.37,2013-06-15 11:27:00,
2013-06-15 07:32:00,60.3,58.9,30.06,West,270,2.4,4.6,95,0.00,SCT,,0.00,WeatherDisplay:10.37,2013-06-15 11:32:00,
2013-06-15 07:37:00,60.3,58.6,30.06,SSW,202,2.0,4.2,94,0.00,SCT,,0.00,WeatherDisplay:10.37,2013-06-15 11:37:00,
2013-06-15 07:42:00,60.4,58.7,30.05,WSW,248,2.6,3.5,94,0.00,SCT,,0.00,WeatherDisplay:10.37,2013-06-15 11:42:00,
2013-06-15 07:47:00,60.8,58.8,30.05,WSW,248,3.7,4.6,93,0.00,SCT,,0.00,WeatherDisplay:10.37,2013-06-15 11:47:00,
2013-06-15 07:52:00,61.5,58.8,30.05,WSW,248,3.4,4.6,91,0.00,SCT,,0.00,WeatherDisplay:10.37,2013-06-15 11:52:00,
2013-06-15 07:57:00,61.9,58.9,30.05,West,270,4.5,5.8,90,0.00,SCT,,0.00,WeatherDisplay:10.37,2013-06-15 11:57:00,
2013-06-15 08:02:00,62.6,59.3,30.05,West,270,3.3,4.6,89,0.00,SCT,,0.00,WeatherDisplay:10.37,2013-06-15 12:02:00,
2013-06-15 08:07:00,63.0,59.4,30.05,SW,225,3.6,4.6,88,0.00,SCT,,0.00,WeatherDisplay:10.37,2013-06-15 12:07:00,
2013-06-15 08:12:00,63.0,59.1,30.05,SSW,202,4.4,5.8,87,0.00,FEW,,0.00,WeatherDisplay:10.37,2013-06-15 12:12:00,
2013-06-15 08:17:00,63.9,59.0,30.05,WSW,248,2.8,3.5,84,0.00,FEW,,0.00,WeatherDisplay:10.37,2013-06-15 12:17:00,
2013-06-15 08:22:00,64.2,57.5,30.05,WNW,292,3.6,4.6,79,0.00,FEW,,0.00,WeatherDisplay:10.37,2013-06-15 12:22:00,
2013-06-15 08:27:00,64.6,57.6,30.05,SW,225,4.3,4.6,78,0.00,FEW,,0.00,WeatherDisplay:10.37,2013-06-15 12:27:00,
2013-06-15 08:32:00,64.4,55.6,30.05,West,270,4.2,5.8,73,0.00,FEW,,0.00,WeatherDisplay:10.37,2013-06-15 12:32:00,
2013-06-15 08:37:00,64.9,56.4,30.05,WSW,248,4.3,4.7,74,0.00,FEW,,0.00,WeatherDisplay:10.37,2013-06-15 12:37:00,
2013-06-15 08:42:00,65.1,55.5,30.07,West,270,5.9,6.9,71,0.00,FEW,,0.00,WeatherDisplay:10.37,2013-06-15 12:42:00,
2013-06-15 08:47:00,64.9,55.3,30.07,WSW,248,6.3,6.9,71,0.00,FEW,,0.00,WeatherDisplay:10.37,2013-06-15 12:47:00,
2013-06-15 08:52:00,64.8,55.2,30.07,West,270,5.1,5.8,71,0.00,FEW,,0.00,WeatherDisplay:10.37,2013-06-15 12:52:00,
2013-06-15 08:57:00,64.8,55.6,30.06,SSW,202,4.9,5.8,72,0.00,FEW,,0.00,WeatherDisplay:10.37,2013-06-15 12:57:00,
2013-06-15 09:02:00,64.6,52.6,30.06,WSW,248,5.1,6.3,65,0.00,FEW,,0.00,WeatherDisplay:10.37,2013-06-15 13:02:00,
2013-06-15 09:07:00,65.1,52.6,30.06,NW,315,4.9,5.8,64,0.00,FEW,,0.00,WeatherDisplay:10.37,2013-06-15 13:07:00,
2013-06-15 09:12:00,65.3,52.4,30.06,SSW,202,3.2,5.8,63,0.00,BKN,,0.00,WeatherDisplay:10.37,2013-06-15 13:12:00,
2013-06-15 09:17:00,66.0,53.0,30.06,West,270,4.0,4.6,63,0.00,BKN,,0.00,WeatherDisplay:10.37,2013-06-15 13:17:00,
2013-06-15 09:22:00,66.9,53.9,30.06,West,270,4.3,4.6,63,0.00,BKN,,0.00,WeatherDisplay:10.37,2013-06-15 13:22:00,
2013-06-15 09:27:00,66.4,56.7,30.06,SSW,202,6.7,6.9,71,0.00,BKN,,0.00,WeatherDisplay:10.37,2013-06-15 13:27:00,
2013-06-15 09:32:00,66.2,57.7,30.06,West,270,5.0,5.8,74,0.00,BKN,,0.00,WeatherDisplay:10.37,2013-06-15 13:32:00,
2013-06-15 09:37:00,66.4,57.9,30.06,SSW,202,5.5,5.8,74,0.00,BKN,,0.00,WeatherDisplay:10.37,2013-06-15 13:37:00,
2013-06-15 09:42:00,66.4,57.5,30.07,WSW,248,5.0,5.8,73,0.00,BKN,,0.00,WeatherDisplay:10.37,2013-06-15 13:42:00,
2013-06-15 09:47:00,66.6,55.7,30.07,WSW,248,6.6,8.3,68,0.00,BKN,,0.00,WeatherDisplay:10.37,2013-06-15 13:47:00,
2013-06-15 09:52:00,66.9,56.8,30.07,SE,135,7.3,9.2,70,0.00,BKN,,0.00,WeatherDisplay:10.37,2013-06-15 13:52:00,
2013-06-15 09:57:00,67.1,57.0,30.07,West,270,5.6,7.3,70,0.00,BKN,,0.00,WeatherDisplay:10.37,2013-06-15 13:57:00,
2013-06-15 10:02:00,66.6,55.3,30.07,WSW,248,5.6,8.1,67,0.00,BKN,,0.00,WeatherDisplay:10.37,2013-06-15 14:02:00,
2013-06-15 10:07:00,66.9,56.4,30.07,WSW,248,5.8,5.8,69,0.00,BKN,,0.00,WeatherDisplay:10.37,2013-06-15 14:07:00,
2013-06-15 10:12:00,67.5,57.0,30.07,South,180,6.3,8.1,69,0.00,BKN,,0.00,WeatherDisplay:10.37,2013-06-15 14:12:00,
2013-06-15 10:17:00,67.1,55.8,30.06,North,360,6.6,8.1,67,0.00,BKN,,0.00,WeatherDisplay:10.37,2013-06-15 14:17:00,
2013-06-15 10:22:00,66.6,55.7,30.06,WSW,248,7.2,10.4,68,0.00,BKN,,0.00,WeatherDisplay:10.37,2013-06-15 14:22:00,
2013-06-15 10:27:00,66.7,55.0,30.06,SSW,202,8.8,10.4,66,0.00,BKN,,0.00,WeatherDisplay:10.37,2013-06-15 14:27:00,
2013-06-15 10:32:00,67.5,57.0,30.07,WSW,248,7.5,8.1,69,0.00,BKN,,0.00,WeatherDisplay:10.37,2013-06-15 14:32:00,
2013-06-15 10:37:00,68.0,56.6,30.07,West,270,6.4,8.1,67,0.00,BKN,,0.00,WeatherDisplay:10.37,2013-06-15 14:37:00,
2013-06-15 10:42:00,68.2,56.0,30.06,WSW,248,6.7,8.1,65,0.00,BKN,,0.00,WeatherDisplay:10.37,2013-06-15 14:42:00,
2013-06-15 10:47:00,68.9,56.6,30.06,West,270,5.9,6.9,65,0.00,BKN,,0.00,WeatherDisplay:10.37,2013-06-15 14:47:00,
2013-06-15 10:52:00,68.0,53.1,30.06,WSW,248,6.2,8.1,59,0.00,BKN,,0.00,WeatherDisplay:10.37,2013-06-15 14:52:00,
2013-06-15 10:57:00,68.7,55.6,30.06,West,270,5.2,6.3,63,0.00,BKN,,0.00,WeatherDisplay:10.37,2013-06-15 14:57:00,
2013-06-15 11:02:00,69.3,57.5,30.06,ESE,112,4.7,7.8,66,0.00,BKN,,0.00,WeatherDisplay:10.37,2013-06-15 15:02:00,
2013-06-15 11:07:00,68.0,57.0,30.07,WNW,292,6.6,8.1,68,0.00,BKN,,0.00,WeatherDisplay:10.37,2013-06-15 15:07:00,
2013-06-15 11:12:00,68.4,57.0,30.07,WSW,248,6.9,9.2,67,0.00,BKN,,0.00,WeatherDisplay:10.37,2013-06-15 15:12:00,
2013-06-15 11:17:00,68.0,57.0,30.06,WSW,248,7.9,9.2,68,0.00,BKN,,0.00,WeatherDisplay:10.37,2013-06-15 15:17:00,
2013-06-15 11:22:00,68.5,57.9,30.06,South,180,4.3,5.8,69,0.00,BKN,,0.00,WeatherDisplay:10.37,2013-06-15 15:22:00,
2013-06-15 11:27:00,68.5,57.9,30.06,West,270,7.1,8.1,69,0.00,BKN,,0.00,WeatherDisplay:10.37,2013-06-15 15:27:00,
2013-06-15 11:32:00,68.2,58.0,30.07,SE,135,9.0,10.4,70,0.00,BKN,,0.00,WeatherDisplay:10.37,2013-06-15 15:32:00,
2013-06-15 11:37:00,68.2,58.0,30.07,West,270,7.8,9.2,70,0.00,BKN,,0.00,WeatherDisplay:10.37,2013-06-15 15:37:00,
2013-06-15 11:42:00,67.5,57.8,30.07,WSW,248,9.5,11.5,71,0.00,BKN,,0.00,WeatherDisplay:10.37,2013-06-15 15:42:00,
2013-06-15 11:47:00,67.5,57.4,30.07,WNW,292,8.0,10.4,70,0.00,BKN,,0.00,WeatherDisplay:10.37,2013-06-15 15:47:00,
2013-06-15 11:52:00,67.5,57.4,30.07,SW,225,8.5,10.4,70,0.00,BKN,,0.00,WeatherDisplay:10.37,2013-06-15 15:52:00,
2013-06-15 11:57:00,67.8,57.3,30.06,SW,225,7.1,8.1,69,0.00,BKN,,0.00,WeatherDisplay:10.37,2013-06-15 15:57:00,
2013-06-15 12:02:00,67.6,57.1,30.06,West,270,8.9,11.5,69,0.00,BKN,,0.00,WeatherDisplay:10.37,2013-06-15 16:02:00,
2013-06-15 12:07:00,67.6,57.1,30.06,West,270,6.1,6.9,69,0.00,BKN,,0.00,WeatherDisplay:10.37,2013-06-15 16:07:00,
2013-06-15 12:12:00,68.7,57.3,30.06,SW,225,6.2,6.9,67,0.00,BKN,,0.00,WeatherDisplay:10.37,2013-06-15 16:12:00,
2013-06-15 12:17:00,68.4,56.6,30.06,SSE,158,6.4,7.3,66,0.00,BKN,,0.00,WeatherDisplay:10.37,2013-06-15 16:17:00,
2013-06-15 12:22:00,69.3,57.5,30.06,WSW,248,6.0,12.7,66,0.00,BKN,,0.00,WeatherDisplay:10.37,2013-06-15 16:22:00,
2013-06-15 12:27:00,69.8,57.1,30.06,SW,225,6.6,8.3,64,0.00,BKN,,0.00,WeatherDisplay:10.37,2013-06-15 16:27:00,
2013-06-15 12:32:00,70.0,56.8,30.05,West,270,4.8,6.9,63,0.00,BKN,,0.00,WeatherDisplay:10.37,2013-06-15 16:32:00,
2013-06-15 12:37:00,70.0,56.8,30.05,West,270,6.8,6.9,63,0.00,BKN,,0.00,WeatherDisplay:10.37,2013-06-15 16:37:00,
2013-06-15 12:42:00,70.2,55.7,30.05,SW,225,9.0,9.4,60,0.00,BKN,,0.00,WeatherDisplay:10.37,2013-06-15 16:42:00,
2013-06-15 12:47:00,70.0,55.5,30.05,West,270,7.5,10.4,60,0.00,BKN,,0.00,WeatherDisplay:10.37,2013-06-15 16:47:00,
2013-06-15 12:52:00,70.5,55.9,30.05,West,270,5.6,6.9,60,0.00,BKN,,0.00,WeatherDisplay:10.37,2013-06-15 16:52:00,
2013-06-15 12:57:00,70.3,55.3,30.05,West,270,7.4,10.4,59,0.00,BKN,,0.00,WeatherDisplay:10.37,2013-06-15 16:57:00,
2013-06-15 13:02:00,69.1,54.6,30.05,West,270,7.7,8.3,60,0.00,SCT,,0.00,WeatherDisplay:10.37,2013-06-15 17:02:00,
2013-06-15 13:07:00,70.0,55.0,30.05,SW,225,7.7,9.4,59,0.00,SCT,,0.00,WeatherDisplay:10.37,2013-06-15 17:07:00,
2013-06-15 13:12:00,70.9,55.4,30.05,SW,225,6.2,9.4,58,0.00,SCT,,0.00,WeatherDisplay:10.37,2013-06-15 17:12:00,
2013-06-15 13:17:00,69.6,52.2,30.04,West,270,7.1,9.2,54,0.00,SCT,,0.00,WeatherDisplay:10.37,2013-06-15 17:17:00,
2013-06-15 13:22:00,69.6,53.2,30.04,West,270,7.2,9.4,56,0.00,SCT,,0.00,WeatherDisplay:10.37,2013-06-15 17:22:00,
2013-06-15 13:27:00,70.5,54.0,30.04,SSW,202,5.5,6.9,56,0.00,SCT,,0.00,WeatherDisplay:10.37,2013-06-15 17:27:00,
2013-06-15 13:32:00,70.2,52.3,30.04,NW,315,7.8,9.2,53,0.00,SCT,,0.00,WeatherDisplay:10.37,2013-06-15 17:32:00,
2013-06-15 13:37:00,70.5,53.1,30.04,WSW,248,6.6,8.1,54,0.00,SCT,,0.00,WeatherDisplay:10.37,2013-06-15 17:37:00,
2013-06-15 13:42:00,70.7,53.7,30.03,WNW,292,8.0,9.2,55,0.00,SCT,,0.00,WeatherDisplay:10.37,2013-06-15 17:42:00,
2013-06-15 13:47:00,71.4,54.4,30.03,West,270,6.6,8.1,55,0.00,SCT,,0.00,WeatherDisplay:10.37,2013-06-15 17:47:00,
2013-06-15 13:52:00,70.9,53.9,30.03,SSW,202,9.3,10.4,55,0.00,SCT,,0.00,WeatherDisplay:10.37,2013-06-15 17:52:00,
2013-06-15 13:57:00,70.7,52.7,30.03,West,270,5.8,6.8,53,0.00,SCT,,0.00,WeatherDisplay:10.37,2013-06-15 17:57:00,
2013-06-15 14:02:00,70.3,51.3,30.03,SW,225,7.9,8.1,51,0.00,SCT,,0.00,WeatherDisplay:10.37,2013-06-15 18:02:00,
2013-06-15 14:07:00,70.9,50.8,30.03,SSE,158,7.8,8.3,49,0.00,SCT,,0.00,WeatherDisplay:10.37,2013-06-15 18:07:00,
2013-06-15 14:12:00,70.7,50.6,30.03,West,270,6.9,8.1,49,0.00,BKN,,0.00,WeatherDisplay:10.37,2013-06-15 18:12:00,
2013-06-15 14:17:00,70.7,48.9,30.03,West,270,6.8,8.1,46,0.00,BKN,,0.00,WeatherDisplay:10.37,2013-06-15 18:17:00,
2013-06-15 14:22:00,71.1,50.4,30.03,South,180,6.0,8.1,48,0.00,BKN,,0.00,WeatherDisplay:10.37,2013-06-15 18:22:00,
2013-06-15 14:27:00,71.4,49.5,30.03,WNW,292,6.1,8.1,46,0.00,BKN,,0.00,WeatherDisplay:10.37,2013-06-15 18:27:00,
2013-06-15 14:32:00,70.9,47.9,30.02,West,270,7.8,10.4,44,0.00,BKN,,0.00,WeatherDisplay:10.37,2013-06-15 18:32:00,
2013-06-15 14:37:00,72.3,48.5,30.02,West,270,5.6,5.8,43,0.00,BKN,,0.00,WeatherDisplay:10.37,2013-06-15 18:37:00,
2013-06-15 14:42:00,72.1,47.1,30.02,WSW,248,8.8,9.2,41,0.00,BKN,,0.00,WeatherDisplay:10.37,2013-06-15 18:42:00,
2013-06-15 14:47:00,71.8,44.1,30.02,West,270,6.5,6.9,37,0.00,BKN,,0.00,WeatherDisplay:10.37,2013-06-15 18:47:00,
2013-06-15 14:52:00,71.1,44.2,30.02,West,270,8.2,10.4,38,0.00,BKN,,0.00,WeatherDisplay:10.37,2013-06-15 18:52:00,
2013-06-15 14:57:00,70.3,46.7,30.02,WSW,248,4.6,6.9,43,0.00,BKN,,0.00,WeatherDisplay:10.37,2013-06-15 18:57:00,
2013-06-15 15:02:00,71.6,47.9,30.02,WNW,292,3.6,4.6,43,0.00,BKN,,0.00,WeatherDisplay:10.37,2013-06-15 19:02:00,
2013-06-15 15:07:00,72.3,48.5,30.02,West,270,6.3,6.9,43,0.00,BKN,,0.00,WeatherDisplay:10.37,2013-06-15 19:07:00,
2013-06-15 15:12:00,72.1,48.4,30.02,WSW,248,7.5,9.2,43,0.00,BKN,,0.00,WeatherDisplay:10.37,2013-06-15 19:12:00,
2013-06-15 15:17:00,71.6,48.5,30.02,West,270,4.8,5.8,44,0.00,BKN,,0.00,WeatherDisplay:10.37,2013-06-15 19:17:00,
2013-06-15 15:22:00,71.6,47.9,30.02,SSW,202,5.8,8.1,43,0.00,BKN,,0.00,WeatherDisplay:10.37,2013-06-15 19:22:00,
2013-06-15 15:27:00,71.6,46.6,30.02,West,270,6.4,6.9,41,0.00,BKN,,0.00,WeatherDisplay:10.37,2013-06-15 19:27:00,
2013-06-15 15:32:00,71.1,46.8,30.02,WSW,248,6.6,8.1,42,0.00,BKN,,0.00,WeatherDisplay:10.37,2013-06-15 19:32:00,
2013-06-15 15:37:00,71.2,46.9,30.02,South,180,5.4,6.9,42,0.00,BKN,,0.00,WeatherDisplay:10.37,2013-06-15 19:37:00,
2013-06-15 15:42:00,71.2,46.3,30.01,WSW,248,6.9,8.1,41,0.00,BKN,,0.00,WeatherDisplay:10.37,2013-06-15 19:42:00,
2013-06-15 15:47:00,71.1,46.2,30.01,West,270,6.4,8.1,41,0.00,BKN,,0.00,WeatherDisplay:10.37,2013-06-15 19:47:00,
2013-06-15 15:52:00,71.1,46.2,30.01,SW,225,6.6,7.3,41,0.00,BKN,,0.00,WeatherDisplay:10.37,2013-06-15 19:52:00,
2013-06-15 15:57:00,71.4,46.5,30.01,WSW,248,6.1,9.2,41,0.00,BKN,,0.00,WeatherDisplay:10.37,2013-06-15 19:57:00,
2013-06-15 16:02:00,71.8,45.5,30.01,SSW,202,5.1,7.3,39,0.00,BKN,,0.00,WeatherDisplay:10.37,2013-06-15 20:02:00,
2013-06-15 16:07:00,71.8,46.2,30.00,WSW,248,4.5,5.8,40,0.00,BKN,,0.00,WeatherDisplay:10.37,2013-06-15 20:07:00,
2013-06-15 16:12:00,71.1,46.2,30.00,West,270,6.2,6.9,41,0.00,BKN,,0.00,WeatherDisplay:10.37,2013-06-15 20:12:00,
2013-06-15 16:17:00,70.5,46.3,30.01,WSW,248,2.9,4.6,42,0.00,BKN,,0.00,WeatherDisplay:10.37,2013-06-15 20:17:00,
2013-06-15 16:22:00,70.2,47.3,30.01,SW,225,4.3,8.1,44,0.00,BKN,,0.00,WeatherDisplay:10.37,2013-06-15 20:22:00,
2013-06-15 16:27:00,71.8,47.5,30.01,SW,225,4.3,4.7,42,0.00,BKN,,0.00,WeatherDisplay:10.37,2013-06-15 20:27:00,
2013-06-15 16:32:00,71.8,46.8,30.00,WSW,248,4.0,4.6,41,0.00,BKN,,0.00,WeatherDisplay:10.37,2013-06-15 20:32:00,
2013-06-15 16:37:00,72.1,47.7,30.00,West,270,5.7,8.1,42,0.00,BKN,,0.00,WeatherDisplay:10.37,2013-06-15 20:37:00,
2013-06-15 16:42:00,71.8,48.7,30.00,West,270,6.3,8.1,44,0.00,BKN,,0.00,WeatherDisplay:10.37,2013-06-15 20:42:00,
2013-06-15 16:47:00,72.0,49.5,30.00,SW,225,6.1,8.1,45,0.00,BKN,,0.00,WeatherDisplay:10.37,2013-06-15 20:47:00,
2013-06-15 16:52:00,71.8,49.3,30.00,SW,225,4.8,5.8,45,0.00,BKN,,0.00,WeatherDisplay:10.37,2013-06-15 20:52:00,
2013-06-15 16:57:00,72.1,49.6,30.00,West,270,5.1,5.8,45,0.00,BKN,,0.00,WeatherDisplay:10.37,2013-06-15 20:57:00,
2013-06-15 17:02:00,72.1,49.6,30.00,WSW,248,4.7,6.8,45,0.00,BKN,,0.00,WeatherDisplay:10.37,2013-06-15 21:02:00,
2013-06-15 17:07:00,72.5,49.3,30.00,WSW,248,4.9,5.8,44,0.00,BKN,,0.00,WeatherDisplay:10.37,2013-06-15 21:07:00,
2013-06-15 17:12:00,72.5,49.3,30.00,SSE,158,4.6,5.8,44,0.00,BKN,,0.00,WeatherDisplay:10.37,2013-06-15 21:12:00,
2013-06-15 17:17:00,72.5,49.3,29.99,SW,225,3.1,3.5,44,0.00,BKN,,0.00,WeatherDisplay:10.37,2013-06-15 21:17:00,
2013-06-15 17:22:00,73.0,49.2,29.99,West,270,4.8,5.8,43,0.00,BKN,,0.00,WeatherDisplay:10.37,2013-06-15 21:22:00,
2013-06-15 17:27:00,73.0,49.8,29.99,SW,225,5.4,5.8,44,0.00,BKN,,0.00,WeatherDisplay:10.37,2013-06-15 21:27:00,
2013-06-15 17:32:00,73.6,49.1,29.99,NNW,338,5.0,5.8,42,0.00,BKN,,0.00,WeatherDisplay:10.37,2013-06-15 21:32:00,
2013-06-15 17:37:00,73.4,49.5,29.99,SW,225,4.1,4.7,43,0.00,BKN,,0.00,WeatherDisplay:10.37,2013-06-15 21:37:00,
2013-06-15 17:42:00,72.1,48.4,29.99,WSW,248,7.4,8.1,43,0.00,BKN,,0.00,WeatherDisplay:10.37,2013-06-15 21:42:00,
2013-06-15 17:47:00,71.4,49.5,29.99,NW,315,5.8,6.9,46,0.00,BKN,,0.00,WeatherDisplay:10.37,2013-06-15 21:47:00,
2013-06-15 17:52:00,71.2,49.9,29.99,SSW,202,5.7,5.8,47,0.00,BKN,,0.00,WeatherDisplay:10.37,2013-06-15 21:52:00,
2013-06-15 17:57:00,70.5,49.9,29.98,West,270,4.2,5.8,48,0.00,BKN,,0.00,WeatherDisplay:10.37,2013-06-15 21:57:00,
2013-06-15 18:02:00,71.6,50.9,29.98,West,270,4.8,5.8,48,0.00,BKN,,0.00,WeatherDisplay:10.37,2013-06-15 22:02:00,
2013-06-15 18:07:00,72.1,49.6,29.98,SE,135,8.0,9.2,45,0.00,BKN,,0.00,WeatherDisplay:10.37,2013-06-15 22:07:00,
2013-06-15 18:12:00,72.1,49.6,29.98,SW,225,5.7,8.1,45,0.00,BKN,,0.00,WeatherDisplay:10.37,2013-06-15 22:12:00,
2013-06-15 18:17:00,71.6,49.1,29.98,SW,225,5.1,5.8,45,0.00,BKN,,0.00,WeatherDisplay:10.37,2013-06-15 22:17:00,
2013-06-15 18:22:00,72.0,49.5,29.98,SW,225,7.0,8.3,45,0.00,BKN,,0.00,WeatherDisplay:10.37,2013-06-15 22:22:00,
2013-06-15 18:27:00,71.1,49.3,29.98,West,270,6.5,8.1,46,0.00,BKN,,0.00,WeatherDisplay:10.37,2013-06-15 22:27:00,
2013-06-15 18:32:00,71.6,49.7,29.98,South,180,4.6,5.8,46,0.00,BKN,,0.00,WeatherDisplay:10.37,2013-06-15 22:32:00,
2013-06-15 18:37:00,71.2,49.4,29.98,SW,225,6.3,6.9,46,0.00,BKN,,0.00,WeatherDisplay:10.37,2013-06-15 22:37:00,
2013-06-15 18:42:00,70.7,49.5,29.98,West,270,6.9,9.2,47,0.00,BKN,,0.00,WeatherDisplay:10.37,2013-06-15 22:42:00,
2013-06-15 18:47:00,69.6,49.6,29.98,WSW,248,5.1,8.1,49,0.00,BKN,,0.00,WeatherDisplay:10.37,2013-06-15 22:47:00,
2013-06-15 18:52:00,70.2,50.1,29.98,SW,225,6.5,6.9,49,0.00,BKN,,0.00,WeatherDisplay:10.37,2013-06-15 22:52:00,
2013-06-15 18:57:00,69.6,49.6,29.98,West,270,5.1,5.8,49,0.00,BKN,,0.00,WeatherDisplay:10.37,2013-06-15 22:57:00,
2013-06-15 19:02:00,69.1,49.7,29.98,WSW,248,7.3,8.1,50,0.00,BKN,,0.00,WeatherDisplay:10.37,2013-06-15 23:02:00,
2013-06-15 19:07:00,68.2,49.4,29.98,West,270,5.5,9.2,51,0.00,BKN,,0.00,WeatherDisplay:10.37,2013-06-15 23:07:00,
2013-06-15 19:12:00,68.2,49.9,29.98,West,270,4.7,5.8,52,0.00,BKN,,0.00,WeatherDisplay:10.37,2013-06-15 23:12:00,
2013-06-15 19:17:00,67.8,50.0,29.98,West,270,5.6,8.1,53,0.00,BKN,,0.00,WeatherDisplay:10.37,2013-06-15 23:17:00,
2013-06-15 19:22:00,67.5,51.2,29.98,WSW,248,5.6,5.8,56,0.00,BKN,,0.00,WeatherDisplay:10.37,2013-06-15 23:22:00,
2013-06-15 19:27:00,67.5,51.2,29.98,West,270,5.5,6.9,56,0.00,BKN,,0.00,WeatherDisplay:10.37,2013-06-15 23:27:00,
2013-06-15 19:32:00,67.5,51.7,29.97,West,270,5.6,5.8,57,0.00,BKN,,0.00,WeatherDisplay:10.37,2013-06-15 23:32:00,
2013-06-15 19:37:00,67.3,52.0,29.97,SSW,202,6.8,8.1,58,0.00,BKN,,0.00,WeatherDisplay:10.37,2013-06-15 23:37:00,
2013-06-15 19:42:00,67.1,52.7,29.97,WSW,248,3.3,8.1,60,0.00,BKN,,0.00,WeatherDisplay:10.37,2013-06-15 23:42:00,
2013-06-15 19:47:00,66.9,53.0,29.97,SW,225,4.5,5.8,61,0.00,BKN,,0.00,WeatherDisplay:10.37,2013-06-15 23:47:00,
2013-06-15 19:52:00,66.9,53.5,29.97,West,270,3.7,4.6,62,0.00,BKN,,0.00,WeatherDisplay:10.37,2013-06-15 23:52:00,
2013-06-15 19:57:00,66.9,53.5,29.97,WSW,248,3.7,4.7,62,0.00,BKN,,0.00,WeatherDisplay:10.37,2013-06-15 23:57:00,
2013-06-15 20:02:00,67.1,53.6,29.97,SSW,202,3.2,4.6,62,0.00,BKN,,0.00,WeatherDisplay:10.37,2013-06-16 00:02:00,
2013-06-15 20:07:00,67.5,54.0,29.98,WSW,248,4.3,4.7,62,0.00,BKN,,0.00,WeatherDisplay:10.37,2013-06-16 00:07:00,
2013-06-15 20:12:00,67.5,54.0,29.98,SSW,202,2.3,2.3,62,0.00,BKN,,0.00,WeatherDisplay:10.37,2013-06-16 00:12:00,
2013-06-15 20:17:00,67.1,54.1,29.97,WSW,248,3.1,4.6,63,0.00,BKN,,0.00,WeatherDisplay:10.37,2013-06-16 00:17:00,
2013-06-15 20:22:00,66.7,54.6,29.97,West,270,3.1,5.8,65,0.00,BKN,,0.00,WeatherDisplay:10.37,2013-06-16 00:22:00,
2013-06-15 20:27:00,66.2,54.5,29.97,West,270,3.9,5.8,66,0.00,BKN,,0.00,WeatherDisplay:10.37,2013-06-16 00:27:00,
2013-06-15 20:32:00,65.8,54.5,29.98,West,270,2.9,3.5,67,0.00,BKN,,0.00,WeatherDisplay:10.37,2013-06-16 00:32:00,
2013-06-15 20:37:00,65.5,54.7,29.98,SW,225,3.5,4.6,68,0.00,BKN,,0.00,WeatherDisplay:10.37,2013-06-16 00:37:00,
2013-06-15 20:42:00,65.1,54.7,29.97,West,270,2.2,2.3,69,0.00,BKN,,0.00,WeatherDisplay:10.37,2013-06-16 00:42:00,
2013-06-15 20:47:00,64.8,54.8,29.97,SSW,202,2.2,2.3,70,0.00,BKN,,0.00,WeatherDisplay:10.37,2013-06-16 00:47:00,
2013-06-15 20:52:00,64.6,55.0,29.97,East,90,2.9,4.7,71,0.00,BKN,,0.00,WeatherDisplay:10.37,2013-06-16 00:52:00,
2013-06-15 20:57:00,64.2,55.4,29.97,West,270,4.3,5.8,73,0.00,BKN,,0.00,WeatherDisplay:10.37,2013-06-16 00:57:00,
2013-06-15 21:02:00,63.9,55.1,29.97,West,270,1.6,2.3,73,0.00,BKN,,0.00,WeatherDisplay:10.37,2013-06-16 01:02:00,
2013-06-15 21:07:00,63.7,55.3,29.98,West,270,4.0,4.6,74,0.00,BKN,,0.00,WeatherDisplay:10.37,2013-06-16 01:07:00,
2013-06-15 21:12:00,63.5,55.1,29.98,WSW,248,3.5,4.6,74,0.00,BKN,,0.00,WeatherDisplay:10.37,2013-06-16 01:12:00,
2013-06-15 21:17:00,63.3,55.2,29.98,West,270,2.3,2.3,75,0.00,BKN,,0.00,WeatherDisplay:10.37,2013-06-16 01:17:00,
2013-06-15 21:22:00,63.1,55.4,29.97,West,270,0.5,1.1,76,0.00,BKN,,0.00,WeatherDisplay:10.37,2013-06-16 01:22:00,
2013-06-15 21:27:00,62.8,55.1,29.97,WNW,292,0.9,1.1,76,0.00,BKN,,0.00,WeatherDisplay:10.37,2013-06-16 01:27:00,
2013-06-15 21:32:00,62.6,55.3,29.97,WSW,248,0.0,0.0,77,0.00,BKN,,0.00,WeatherDisplay:10.37,2013-06-16 01:32:00,
2013-06-15 21:37:00,62.2,55.3,29.97,SSE,158,0.0,0.0,78,0.00,BKN,,0.00,WeatherDisplay:10.37,2013-06-16 01:37:00,
2013-06-15 21:42:00,61.9,55.3,29.97,West,270,0.0,0.0,79,0.00,BKN,,0.00,WeatherDisplay:10.37,2013-06-16 01:42:00,
2013-06-15 21:47:00,61.7,55.8,29.97,South,180,0.0,0.0,81,0.00,BKN,,0.00,WeatherDisplay:10.37,2013-06-16 01:47:00,
2013-06-15 21:52:00,61.5,55.6,29.97,SSE,158,0.0,0.0,81,0.00,BKN,,0.00,WeatherDisplay:10.37,2013-06-16 01:52:00,
2013-06-15 21:57:00,61.2,55.3,29.97,SW,225,0.0,0.0,81,0.00,BKN,,0.00,WeatherDisplay:10.37,2013-06-16 01:57:00,
2013-06-15 22:02:00,61.0,55.1,29.97,WSW,248,0.0,0.0,81,0.00,BKN,,0.00,WeatherDisplay:10.37,2013-06-16 02:02:00,
2013-06-15 22:07:00,61.0,55.1,29.97,ESE,112,0.0,0.0,81,0.00,BKN,,0.00,WeatherDisplay:10.37,2013-06-16 02:07:00,
2013-06-15 22:12:00,60.8,55.3,29.97,SSE,158,0.0,0.0,82,0.00,BKN,,0.00,WeatherDisplay:10.37,2013-06-16 02:12:00,
2013-06-15 22:17:00,60.6,55.4,29.96,NE,45,0.0,0.0,83,0.00,BKN,,0.00,WeatherDisplay:10.37,2013-06-16 02:17:00,
2013-06-15 22:22:00,60.4,55.5,29.96,ESE,112,0.0,0.0,84,0.00,BKN,,0.00,WeatherDisplay:10.37,2013-06-16 02:22:00,
2013-06-15 22:27:00,60.3,55.8,29.96,ESE,112,0.0,0.0,85,0.00,BKN,,0.00,WeatherDisplay:10.37,2013-06-16 02:27:00,
2013-06-15 22:32:00,60.1,55.6,29.95,SE,135,0.0,0.0,85,0.00,BKN,,0.00,WeatherDisplay:10.37,2013-06-16 02:32:00,
2013-06-15 22:37:00,59.9,55.4,29.95,WNW,292,0.0,0.0,85,0.00,BKN,,0.00,WeatherDisplay:10.37,2013-06-16 02:37:00,
2013-06-15 22:42:00,59.5,55.0,29.95,SSE,158,0.0,0.0,85,0.00,BKN,,0.00,WeatherDisplay:10.37,2013-06-16 02:42:00,
2013-06-15 22:47:00,59.4,54.9,29.95,WSW,248,0.0,0.0,85,0.00,BKN,,0.00,WeatherDisplay:10.37,2013-06-16 02:47:00,
2013-06-15 22:52:00,59.2,55.0,29.95,ESE,112,0.0,0.0,86,0.00,BKN,,0.00,WeatherDisplay:10.37,2013-06-16 02:52:00,
2013-06-15 22:57:00,59.0,55.1,29.95,ESE,112,0.0,0.0,87,0.00,BKN,,0.00,WeatherDisplay:10.37,2013-06-16 02:57:00,
2013-06-15 23:02:00,58.8,55.3,29.95,ESE,112,0.0,0.0,88,0.00,BKN,,0.00,WeatherDisplay:10.37,2013-06-16 03:02:00,
2013-06-15 23:07:00,58.6,55.1,29.95,ESE,112,0.0,0.0,88,0.00,BKN,,0.00,WeatherDisplay:10.37,2013-06-16 03:07:00,
2013-06-15 23:12:00,58.5,55.3,29.95,SSE,158,0.0,0.0,89,0.00,OVC,,0.00,WeatherDisplay:10.37,2013-06-16 03:12:00,
2013-06-15 23:17:00,58.5,55.6,29.95,SSE,158,0.0,0.0,90,0.00,OVC,,0.00,WeatherDisplay:10.37,2013-06-16 03:17:00,
2013-06-15 23:22:00,58.3,55.4,29.95,SSE,158,0.0,0.0,90,0.00,OVC,,0.00,WeatherDisplay:10.37,2013-06-16 03:22:00,
2013-06-15 23:27:00,58.1,55.5,29.95,SE,135,0.0,0.0,91,0.00,OVC,,0.00,WeatherDisplay:10.37,2013-06-16 03:27:00,
2013-06-15 23:32:00,58.1,55.5,29.95,ESE,112,0.0,0.0,91,0.00,OVC,,0.00,WeatherDisplay:10.37,2013-06-16 03:32:00,
2013-06-15 23:37:00,57.9,55.3,29.95,ESE,112,0.0,0.0,91,0.00,OVC,,0.00,WeatherDisplay:10.37,2013-06-16 03:37:00,
2013-06-15 23:42:00,57.9,55.6,29.94,ESE,112,0.0,0.0,92,0.00,OVC,,0.00,WeatherDisplay:10.37,2013-06-16 03:42:00,
2013-06-15 23:47:00,57.9,55.6,29.94,ESE,112,0.0,0.0,92,0.00,OVC,,0.00,WeatherDisplay:10.37,2013-06-16 03:47:00,
2013-06-15 23:52:00,57.9,55.6,29.94,ESE,112,0.0,0.0,92,0.00,OVC,,0.00,WeatherDisplay:10.37,2013-06-16 03:52:00,
2013-06-15 23:57:00,57.9,55.9,29.95,East,90,0.0,0.0,93,0.00,OVC,,0.00,WeatherDisplay:10.37,2013-06-16 03:57:00,